Date,TemperatureHighF,TemperatureAvgF,TemperatureLowF,DewpointHighF,DewpointAvgF,DewpointLowF,HumidityHigh,HumidityAvg,HumidityLow,PressureMaxIn,PressureMinIn,WindSpeedMaxMPH,WindSpeedAvgMPH,GustSpeedMaxMPH,PrecipitationSumIn
2013-2-1,65,54,43,34,30,26,53,41,29,30.25,30.16,11,0,11,0.00
2013-2-2,64,55,47,39,30,27,55,39,26,30.28,30.18,14,0,14,0.00
2013-2-3,65,55,49,40,36,30,63,49,35,30.18,30.05,22,2,22,0.02
2013-2-4,66,55,47,34,29,23,49,38,28,30.12,30.02,22,2,22,0.00
2013-2-5,69,56,44,33,28,20,43,34,23,30.06,29.94,24,2,24,0.00
2013-2-6,65,54,42,33,24,14,63,34,20,30.09,29.90,26,2,26,0.00
2013-2-7,66,53,42,28,22,12,51,30,20,30.08,29.87,33,5,33,0.00
2013-2-8,49,40,35,32,26,21,70,58,45,29.87,29.78,37,10,37,0.02
2013-2-9,53,42,31,28,23,19,62,49,32,29.99,29.80,17,2,17,0.00
2013-2-10,50,41,32,26,22,17,56,46,35,30.00,29.92,18,1,18,0.00
2013-2-11,49,40,34,28,15,6,75,40,21,30.18,29.98,27,6,27,0.00
2013-2-12,52,43,36,16,12,6,33,28,20,30.27,30.17,20,3,20,0.00
2013-2-13,62,50,39,24,18,12,33,29,22,30.23,30.13,24,3,24,0.00
2013-2-14,62,54,46,26,23,20,37,30,23,30.23,30.13,29,6,29,0.00
2013-2-15,62,54,48,23,20,17,34,27,19,30.30,30.20,26,5,26,0.00
2013-2-16,68,54,42,23,18,12,33,25,18,30.29,30.01,8,0,8,0.00
2013-2-17,70,55,44,26,19,10,35,25,16,30.02,29.89,15,1,15,0.00
2013-2-18,66,53,42,29,22,15,42,31,21,30.03,29.88,23,3,23,0.00
2013-2-19,56,45,37,31,24,15,69,45,27,29.88,29.61,32,7,32,0.00
2013-2-20,51,40,32,31,27,23,76,60,41,29.89,29.57,29,2,29,0.10
2013-2-21,50,41,34,26,20,13,61,45,28,30.03,29.88,21,1,21,0.00
2013-2-22,56,46,36,21,16,11,42,30,21,30.14,30.03,24,2,24,0.00
2013-2-23,63,51,41,29,24,13,46,37,24,30.11,29.81,31,6,31,0.00
2013-2-24,50,42,35,13,6,3,31,22,16,30.18,30.01,42,12,42,0.00
2013-2-25,63,48,36,18,12,6,32,24,17,30.20,30.02,16,1,16,0.00
2013-2-26,56,48,38,17,12,6,35,24,16,30.18,29.99,30,5,30,0.00
2013-2-27,56,46,37,15,10,6,31,23,17,30.30,30.17,29,4,29,0.00
2013-2-28,63,52,40,17,12,6,26,20,16,30.35,30.28,21,2,21,0.00